Time;durP1;ratioP1;P1;durP2;ratioP2;P2;SDS_P1;SDS_P2;PMS_P1;PMS_P2;Temp;Humidity;BMP_temperature;BMP_pressure;BME280_temperature;BME280_humidity;BME280_pressure;Samples;Min_cycle;Max_cycle;Signal;HPM_P1;HPM_P2
2020/12/07 00:00:33;;;;;;;5.97;5.13;;;2.90;94.60;;;;;;5013168;28;20025;-83
2020/12/07 00:02:58;;;;;;;6.60;5.10;;;4.20;95.10;;;;;;4999904;28;20018;-83
2020/12/07 00:05:24;;;;;;;6.15;5.28;;;;;;;;;;5016313;28;20021;-84
2020/12/07 00:07:50;;;;;;;5.45;4.78;;;2.70;97.80;;;;;;5032317;28;20018;-84
2020/12/07 00:10:16;;;;;;;6.10;5.00;;;3.50;95.00;;;;;;4999852;28;20095;-84
2020/12/07 00:12:42;;;;;;;5.32;4.63;;;4.20;95.30;;;;;;5032401;28;20135;-86
2020/12/07 00:15:08;;;;;;;5.68;4.38;;;4.40;95.30;;;;;;5032606;28;20025;-84
2020/12/07 00:17:34;;;;;;;5.25;4.43;;;;;;;;;;4999745;28;20072;-84
2020/12/07 00:19:59;;;;;;;4.35;3.90;;;2.90;97.80;;;;;;5032430;28;20018;-85
2020/12/07 00:22:27;;;;;;;7.82;4.90;;;4.20;94.70;;;;;;5015401;28;20154;-83
2020/12/07 00:24:53;;;;;;;6.32;4.95;;;4.10;94.70;;;;;;5016468;28;20025;-83
2020/12/07 00:27:22;;;;;;;5.72;5.03;;;2.80;99.90;;;;;;5015632;28;20044;-84
2020/12/07 00:29:48;;;;;;;6.18;4.85;;;;;;;;;;5032238;28;20100;-83
2020/12/07 00:32:14;;;;;;;5.32;4.80;;;2.70;97.60;;;;;;5032224;28;20047;-83
2020/12/07 00:34:40;;;;;;;5.75;5.15;;;3.90;94.90;;;;;;4999457;28;20021;-83
2020/12/07 00:37:07;;;;;;;5.93;5.03;;;4.00;95.00;;;;;;4996122;28;20067;-83
2020/12/07 00:39:32;;;;;;;6.10;5.00;;;3.70;94.80;;;;;;4995688;28;20033;-83
2020/12/07 00:41:58;;;;;;;5.47;4.70;;;;;;;;;;4979516;28;20018;-83
2020/12/07 00:44:24;;;;;;;6.43;5.40;;;2.70;98.30;;;;;;5011526;28;20484;-83
2020/12/07 00:46:49;;;;;;;6.05;4.95;;;3.70;95.00;;;;;;4995625;28;20018;-83
2020/12/07 00:49:15;;;;;;;5.22;4.53;;;3.70;95.00;;;;;;4995681;28;20476;-86
2020/12/07 00:51:40;;;;;;;7.35;5.03;;;3.00;94.90;;;;;;4995696;28;20115;-83
2020/12/07 00:54:06;;;;;;;5.28;4.78;;;2.80;94.80;;;;;;4989024;28;20448;-83
2020/12/07 00:56:32;;;;;;;7.88;5.47;;;3.00;99.50;;;;;;5011826;28;20021;-83
2020/12/07 00:58:57;;;;;;;6.22;5.15;;;3.20;94.80;;;;;;5012218;28;20353;-85
2020/12/07 01:01:23;;;;;;;5.80;4.78;;;2.80;94.60;;;;;;5011924;28;20080;-83
2020/12/07 01:03:48;;;;;;;6.07;5.03;;;2.80;99.90;;;;;;5012144;28;20029;-84
2020/12/07 01:06:14;;;;;;;6.05;5.30;;;3.60;94.80;;;;;;5011921;28;20440;-85
2020/12/07 01:08:39;;;;;;;6.75;5.47;;;3.60;99.50;;;;;;5012055;28;20026;-83
2020/12/07 01:11:05;;;;;;;6.65;5.45;;;2.90;94.50;;;;;;5011733;28;20356;-83
2020/12/07 01:13:31;;;;;;;6.57;5.40;;;2.70;94.50;;;;;;5011939;28;20037;-83
2020/12/07 01:15:56;;;;;;;5.82;4.88;;;2.90;99.90;;;;;;5011741;28;20345;-83
2020/12/07 01:18:22;;;;;;;6.53;5.47;;;3.50;94.80;;;;;;5011671;28;20455;-83
2020/12/07 01:20:47;;;;;;;7.32;4.90;;;3.60;95.00;;;;;;5011500;28;20105;-84
2020/12/07 01:23:13;;;;;;;6.40;5.60;;;3.30;95.10;;;;;;5011687;28;20026;-84
2020/12/07 01:25:39;;;;;;;5.75;5.15;;;2.60;99.90;;;;;;5011664;28;20026;-83
2020/12/07 01:28:05;;;;;;;6.88;5.70;;;;;;;;;;5011160;28;20049;-83
2020/12/07 01:30:31;;;;;;;7.13;5.30;;;;;;;;;;5011709;28;20025;-83
2020/12/07 01:32:56;;;;;;;5.90;4.88;;;2.90;94.30;;;;;;5011524;28;20365;-83
2020/12/07 01:35:22;;;;;;;5.53;4.78;;;3.00;94.90;;;;;;5011608;28;20029;-84
2020/12/07 01:37:47;;;;;;;6.72;5.90;;;2.90;94.90;;;;;;5011488;28;20112;-83
2020/12/07 01:40:13;;;;;;;6.35;5.53;;;2.90;99.90;;;;;;5011468;28;20449;-85
2020/12/07 01:42:39;;;;;;;6.28;5.57;;;3.80;95.20;;;;;;5011580;28;20032;-83
2020/12/07 01:45:04;;;;;;;7.10;6.28;;;2.90;95.00;;;;;;5011232;28;20026;-85
2020/12/07 01:47:30;;;;;;;7.32;6.28;;;3.70;95.20;;;;;;5011372;28;20055;-83
2020/12/07 01:49:56;;;;;;;7.38;5.47;;;3.60;95.10;;;;;;5011351;28;20029;-83
2020/12/07 01:52:22;;;;;;;5.43;4.93;;;2.90;99.90;;;;;;5011510;28;20145;-83
2020/12/07 01:54:48;;;;;;;5.68;5.10;;;3.70;95.20;;;;;;5013262;28;20025;-83
2020/12/07 01:57:14;;;;;;;5.10;4.60;;;3.30;95.10;;;;;;5015337;28;20053;-84
2020/12/07 01:59:40;;;;;;;5.72;5.13;;;3.70;95.20;;;;;;5015272;28;20077;-83
2020/12/07 02:02:05;;;;;;;6.03;5.43;;;3.50;95.10;;;;;;5015168;28;20041;-83
2020/12/07 02:04:31;;;;;;;5.70;4.60;;;2.70;99.90;;;;;;5015272;28;20032;-83
2020/12/07 02:06:57;;;;;;;5.13;4.40;;;4.00;95.20;;;;;;5015450;28;20021;-84
2020/12/07 02:09:29;;;;;;;5.22;4.60;;;3.00;95.00;;;;;;5015172;28;20025;-84
2020/12/07 02:11:54;;;;;;;5.40;4.65;;;5.00;95.50;;;;;;5014827;28;20038;-83
2020/12/07 02:14:20;;;;;;;6.10;5.18;;;3.60;95.60;;;;;;5015459;28;20032;-83
2020/12/07 02:16:46;;;;;;;5.03;4.38;;;2.80;99.90;;;;;;5014726;28;20032;-83
2020/12/07 02:19:12;;;;;;;5.53;4.70;;;3.30;95.20;;;;;;5019418;28;20024;-83
2020/12/07 02:21:37;;;;;;;6.13;5.03;;;3.80;95.30;;;;;;5018284;28;20025;-85
2020/12/07 02:24:03;;;;;;;5.70;4.82;;;3.70;95.20;;;;;;5001701;28;20055;-84
2020/12/07 02:26:28;;;;;;;6.13;4.45;;;3.90;95.30;;;;;;5001639;28;20022;-83
2020/12/07 02:28:54;;;;;;;4.68;4.07;;;2.90;99.90;;;;;;5018048;28;20064;-83
2020/12/07 02:31:20;;;;;;;4.97;4.47;;;3.40;95.20;;;;;;5034278;28;20561;-85
2020/12/07 02:33:45;;;;;;;4.40;4.00;;;3.80;95.20;;;;;;5034536;28;20017;-83
2020/12/07 02:36:11;;;;;;;6.35;5.18;;;3.40;95.20;;;;;;5034511;28;20451;-84
2020/12/07 02:38:36;;;;;;;11.18;7.57;;;2.70;95.20;;;;;;5001577;28;20054;-83
2020/12/07 02:41:02;;;;;;;12.60;9.20;;;2.70;99.90;;;;;;5001692;28;20104;-85
2020/12/07 02:43:28;;;;;;;8.55;6.72;;;3.90;95.30;;;;;;5017698;28;20100;-85
2020/12/07 02:45:53;;;;;;;8.00;5.88;;;3.70;95.30;;;;;;5001397;28;20116;-83
2020/12/07 02:48:19;;;;;;;6.88;5.40;;;3.40;95.20;;;;;;5017514;28;20028;-84
2020/12/07 02:50:44;;;;;;;5.90;5.07;;;3.90;95.40;;;;;;5001332;28;20029;-83
2020/12/07 02:53:10;;;;;;;7.93;5.47;;;2.80;99.90;;;;;;5017501;28;20093;-84
2020/12/07 02:55:35;;;;;;;6.40;4.50;;;3.70;95.20;;;;;;5017505;28;20051;-84
2020/12/07 02:58:01;;;;;;;5.35;4.28;;;3.80;95.10;;;;;;5017507;28;20345;-85
2020/12/07 03:00:27;;;;;;;6.70;4.70;;;3.80;95.50;;;;;;5001017;28;20026;-85
2020/12/07 03:02:52;;;;;;;5.00;4.03;;;3.70;95.20;;;;;;5017261;28;20053;-84
2020/12/07 03:05:18;;;;;;;6.80;3.80;;;3.00;99.90;;;;;;5033292;28;20026;-85
2020/12/07 03:07:44;;;;;;;5.30;4.15;;;;;;;;;;5017386;28;20025;-85
2020/12/07 03:10:09;;;;;;;5.13;3.88;;;2.70;94.50;;;;;;5017296;28;20029;-84
2020/12/07 03:12:35;;;;;;;4.95;4.07;;;5.00;95.60;;;;;;5017170;28;20041;-84
2020/12/07 03:15:01;;;;;;;5.00;3.80;;;2.90;95.10;;;;;;5001297;28;20029;-84
2020/12/07 03:17:27;;;;;;;5.28;4.03;;;;;;;;;;5017008;28;20021;-85
2020/12/07 03:19:52;;;;;;;4.65;3.90;;;2.70;98.00;;;;;;5034916;28;20024;-84
2020/12/07 03:22:18;;;;;;;5.75;3.97;;;3.60;95.20;;;;;;5017279;28;20356;-84
2020/12/07 03:24:43;;;;;;;5.55;4.30;;;3.60;95.30;;;;;;5000459;28;20021;-84
2020/12/07 03:27:09;;;;;;;5.15;4.45;;;3.80;95.50;;;;;;5016525;28;20073;-84
2020/12/07 03:29:35;;;;;;;4.93;3.90;;;;;;;;;;5017140;28;20447;-84
2020/12/07 03:32:01;;;;;;;4.25;3.85;;;2.80;98.20;;;;;;5016529;28;20025;-84
2020/12/07 03:34:27;;;;;;;4.78;4.03;;;3.60;95.50;;;;;;5000373;28;20021;-84
2020/12/07 03:36:52;;;;;;;5.05;4.38;;;3.20;95.50;;;;;;5016842;28;20100;-85
2020/12/07 03:39:18;;;;;;;4.55;3.97;;;2.80;95.30;;;;;;5016944;28;20025;-85
2020/12/07 03:41:43;;;;;;;4.43;3.80;;;2.50;99.90;;;;;;5016473;28;20029;-83
2020/12/07 03:44:09;;;;;;;6.30;4.18;;;4.10;99.90;;;;;;5000430;28;20056;-83
2020/12/07 03:46:35;;;;;;;5.10;4.00;;;2.80;95.30;;;;;;5000133;28;20029;-84
2020/12/07 03:49:00;;;;;;;6.10;4.30;;;4.00;95.60;;;;;;5000285;28;20033;-84
2020/12/07 03:51:26;;;;;;;4.65;3.90;;;3.50;95.50;;;;;;5016314;28;20025;-85
2020/12/07 03:53:52;;;;;;;5.95;4.00;;;;;;;;;;5016393;28;20032;-85
2020/12/07 03:56:17;;;;;;;4.80;3.90;;;2.70;98.30;;;;;;5016438;28;20455;-83
2020/12/07 03:58:43;;;;;;;8.05;4.45;;;2.70;95.00;;;;;;5016310;28;20120;-86
2020/12/07 04:01:12;;;;;;;4.28;3.50;;;3.60;95.20;;;;;;5016316;28;20427;-84
2020/12/07 04:03:39;;;;;;;5.57;4.43;;;3.70;95.20;;;;;;5017185;28;20448;-85
2020/12/07 04:06:21;;;;;;;6.20;4.30;;;;;;;;;;5000544;28;20036;-84
2020/12/07 04:08:47;;;;;;;5.78;4.97;;;2.80;98.20;;;;;;5034143;28;20013;-84
2020/12/07 04:11:12;;;;;;;7.25;4.22;;;3.70;95.30;;;;;;5016179;28;20026;-83
2020/12/07 04:13:38;;;;;;;10.23;7.32;;;4.80;95.80;;;;;;4999731;28;20371;-83
2020/12/07 04:16:04;;;;;;;7.05;6.05;;;4.00;95.60;;;;;;4999934;28;20168;-83
2020/12/07 04:18:30;;;;;;;4.72;4.13;;;;;;;;;;5016206;28;20025;-83
2020/12/07 04:20:59;;;;;;;5.32;4.00;;;2.70;98.10;;;;;;5016068;28;20022;-84
2020/12/07 04:23:25;;;;;;;8.13;4.70;;;2.70;95.00;;;;;;5016726;28;20022;-85
2020/12/07 04:25:52;;;;;;;7.47;4.72;;;3.40;95.10;;;;;;5015753;28;20491;-84
2020/12/07 04:28:18;;;;;;;6.03;4.35;;;3.70;95.30;;;;;;4999629;28;20386;-83
2020/12/07 04:30:43;;;;;;;5.50;3.88;;;2.80;99.90;;;;;;5015958;28;20100;-84
2020/12/07 04:33:09;;;;;;;11.75;6.78;;;4.40;99.90;;;;;;5015473;28;20060;-84
2020/12/07 04:35:35;;;;;;;16.02;8.55;;;;;;;;;;4999297;28;20032;-84
2020/12/07 04:38:00;;;;;;;22.45;10.48;;;2.70;94.80;;;;;;5015855;28;20029;-84
2020/12/07 04:40:26;;;;;;;5.70;4.53;;;3.00;95.40;;;;;;5015769;28;20053;-83
2020/12/07 04:42:52;;;;;;;9.82;5.53;;;2.60;99.90;;;;;;4999108;28;20357;-84
2020/12/07 04:45:17;;;;;;;10.45;5.38;;;2.70;99.90;;;;;;4999219;28;20020;-85
2020/12/07 04:47:43;;;;;;;8.27;6.57;;;3.90;95.50;;;;;;4999155;28;20471;-85
2020/12/07 04:50:09;;;;;;;19.05;9.60;;;2.70;95.90;;;;;;4998945;28;20026;-84
2020/12/07 04:52:34;;;;;;;8.77;6.20;;;3.10;95.90;;;;;;4998746;28;20479;-83
2020/12/07 04:55:01;;;;;;;6.18;5.22;;;2.50;99.90;;;;;;5015657;28;20111;-84
2020/12/07 04:57:27;;;;;;;6.22;4.78;;;4.50;99.90;;;;;;5015533;28;20028;-85
2020/12/07 04:59:53;;;;;;;8.02;5.22;;;3.50;95.60;;;;;;4999059;28;20021;-83
2020/12/07 05:02:18;;;;;;;7.50;5.65;;;3.70;95.60;;;;;;4998886;28;20022;-83
2020/12/07 05:04:44;;;;;;;9.20;6.35;;;3.70;95.50;;;;;;5015116;28;20036;-84
2020/12/07 05:07:11;;;;;;;43.47;20.70;;;;;;;;;;5015283;28;20025;-85
2020/12/07 05:09:38;;;;;;;38.53;20.15;;;;;;;;;;5015056;28;20108;-84
2020/12/07 05:12:15;;;;;;;26.65;14.75;;;2.70;94.90;;;;;;5031390;28;20165;-84
2020/12/07 05:14:41;;;;;;;13.68;8.60;;;3.60;95.50;;;;;;5001862;28;20056;-86
2020/12/07 05:17:07;;;;;;;11.95;8.23;;;2.80;99.90;;;;;;5031659;28;20096;-84
2020/12/07 05:19:33;;;;;;;9.23;7.50;;;3.30;95.50;;;;;;5015146;28;20025;-84
2020/12/07 05:21:58;;;;;;;11.27;7.00;;;2.80;95.30;;;;;;5014753;28;20025;-85
2020/12/07 05:24:24;;;;;;;6.38;5.50;;;3.20;95.40;;;;;;5014692;28;20022;-84
2020/12/07 05:26:50;;;;;;;6.38;5.22;;;3.40;95.50;;;;;;5014967;28;20133;-85
2020/12/07 05:29:29;;;;;;;5.63;4.60;;;2.40;99.90;;;;;;4998059;28;20438;-85
2020/12/07 05:31:56;;;;;;;16.30;9.55;;;2.70;95.00;;;;;;5000206;28;20036;-84
2020/12/07 05:34:24;;;;;;;10.77;7.55;;;2.70;95.50;;;;;;5014516;28;20371;-84
2020/12/07 05:36:54;;;;;;;11.38;7.75;;;3.00;95.40;;;;;;5015112;28;20033;-84
2020/12/07 05:39:20;;;;;;;8.10;5.82;;;3.80;95.70;;;;;;5015201;28;20023;-85
2020/12/07 05:41:46;;;;;;;5.28;4.30;;;;;;;;;;5015289;28;20033;-84
2020/12/07 05:44:12;;;;;;;5.05;4.43;;;2.70;94.90;;;;;;5031468;28;20367;-82
2020/12/07 05:46:38;;;;;;;5.18;4.32;;;2.80;99.70;;;;;;4998386;28;20030;-84
2020/12/07 05:49:03;;;;;;;5.15;4.53;;;2.60;95.20;;;;;;4998692;28;20030;-81
2020/12/07 05:51:29;;;;;;;6.18;5.07;;;4.20;95.60;;;;;;5014685;28;20447;-82
2020/12/07 05:53:54;;;;;;;6.63;4.85;;;2.60;99.90;;;;;;5031300;28;20094;-82
2020/12/07 05:56:20;;;;;;;10.98;7.43;;;2.50;99.60;;;;;;4998610;28;20375;-82
2020/12/07 05:59:00;;;;;;;52.53;27.75;;;2.70;95.40;;;;;;5014981;28;20487;-85
2020/12/07 06:01:26;;;;;;;107.18;47.88;;;4.00;95.50;;;;;;4999029;28;20068;-85
2020/12/07 06:03:52;;;;;;;17.55;11.48;;;2.60;95.10;;;;;;4998457;28;20029;-83
2020/12/07 06:06:25;;;;;;;15.82;8.68;;;2.50;99.40;;;;;;4998282;28;20490;-83
2020/12/07 06:08:51;;;;;;;7.70;6.30;;;2.40;98.30;;;;;;5031530;28;20022;-85
2020/12/07 06:11:16;;;;;;;8.40;5.80;;;3.10;95.20;;;;;;5014495;28;20411;-82
2020/12/07 06:13:42;;;;;;;7.20;4.63;;;3.60;95.50;;;;;;5015027;28;20037;-80
2020/12/07 06:16:08;;;;;;;11.90;7.68;;;2.40;99.90;;;;;;5014947;28;20022;-88
2020/12/07 06:18:35;;;;;;;7.47;6.30;;;2.60;99.90;;;;;;4996974;28;20120;-79
2020/12/07 06:21:04;;;;;;;6.97;6.28;;;3.60;95.30;;;;;;4998489;28;20064;-82
2020/12/07 06:23:37;;;;;;;7.55;6.72;;;2.30;95.10;;;;;;5031214;28;20112;-78
2020/12/07 06:26:05;;;;;;;7.22;6.30;;;3.00;95.50;;;;;;4998417;28;20025;-78
2020/12/07 06:28:31;;;;;;;9.30;5.90;;;2.40;95.20;;;;;;5031835;28;20045;-79
2020/12/07 06:31:15;;;;;;;7.68;6.32;;;2.40;99.90;;;;;;4995738;28;20029;-79
2020/12/07 06:33:52;;;;;;;6.70;5.03;;;2.50;99.60;;;;;;5029118;28;20026;-78
2020/12/07 06:36:28;;;;;;;7.28;6.07;;;2.40;95.80;;;;;;5030560;28;20025;-78
2020/12/07 06:38:56;;;;;;;6.78;5.18;;;3.00;96.00;;;;;;5030640;28;20120;-78
2020/12/07 06:41:32;;;;;;;8.75;6.07;;;2.90;95.70;;;;;;5032006;28;20022;-78
2020/12/07 06:44:01;;;;;;;7.30;5.60;;;2.30;95.60;;;;;;5032568;28;20029;-78
2020/12/07 06:49:26;;;;;;;8.60;6.93;;;2.20;95.20;;;;;;5014330;28;20096;-78
2020/12/07 06:51:55;;;;;;;6.93;6.22;;;2.20;95.40;;;;;;5017055;28;20478;-79
2020/12/07 06:57:21;;;;;;;6.85;5.47;;;3.20;95.60;;;;;;5014648;28;20033;-80
2020/12/07 06:59:54;;;;;;;7.35;6.00;;;3.00;99.90;;;;;;4998117;28;20030;-80
2020/12/07 07:02:20;;;;;;;7.05;5.63;;;;;;;;;;5019740;28;20025;-80
2020/12/07 07:04:53;;;;;;;8.57;6.10;;;2.20;98.90;;;;;;5015570;28;20022;-79
2020/12/07 07:07:24;;;;;;;6.72;5.80;;;2.20;95.40;;;;;;4998334;28;20769;-78
2020/12/07 07:09:49;;;;;;;6.95;5.38;;;2.20;95.30;;;;;;5014296;28;20478;-79
2020/12/07 07:12:15;;;;;;;6.10;5.50;;;2.00;99.90;;;;;;5001107;28;20265;-79
2020/12/07 07:14:41;;;;;;;7.18;5.82;;;2.50;95.70;;;;;;5015199;28;20018;-79
2020/12/07 07:17:08;;;;;;;7.55;5.60;;;2.50;99.90;;;;;;5015528;28;20028;-84
2020/12/07 07:19:34;;;;;;;6.82;6.07;;;2.40;95.50;;;;;;4996978;28;20036;-83
2020/12/07 07:21:59;;;;;;;9.73;5.45;;;3.30;95.70;;;;;;4997582;28;20026;-80
2020/12/07 07:24:29;;;;;;;6.07;5.03;;;2.30;99.90;;;;;;4981003;28;20349;-79
2020/12/07 07:27:01;;;;;;;7.75;5.55;;;2.50;95.60;;;;;;5011176;28;20033;-79
2020/12/07 07:29:26;;;;;;;9.13;6.25;;;2.70;95.10;;;;;;5020366;28;20064;-78
2020/12/07 07:31:52;;;;;;;22.92;20.30;;;3.60;95.20;;;;;;5031467;28;20072;-78
2020/12/07 07:34:17;;;;;;;13.10;11.80;;;3.20;95.10;;;;;;5033267;28;20018;-78
2020/12/07 07:36:43;;;;;;;7.65;6.20;;;;;;;;;;5026938;28;20026;-78
2020/12/07 07:39:14;;;;;;;6.90;5.90;;;2.40;97.90;;;;;;5014843;28;20022;-78
2020/12/07 07:41:39;;;;;;;8.75;6.38;;;2.30;94.70;;;;;;4999625;28;20022;-79
2020/12/07 07:44:05;;;;;;;7.78;7.00;;;4.00;94.60;;;;;;5003695;28;20084;-79
2020/12/07 07:46:32;;;;;;;10.57;8.45;;;2.10;99.90;;;;;;5019265;28;20474;-79
2020/12/07 07:49:30;;;;;;;21.52;11.15;;;;;;;;;;5031353;28;20025;-82
2020/12/07 07:58:46;;;;;;;13.20;8.20;;;3.20;95.00;;;;;;5006298;28;20101;-79
2020/12/07 08:17:23;;;;;;;7.07;6.13;;;4.20;98.80;;;;;;5011905;28;20105;-81
2020/12/07 08:19:51;;;;;;;10.65;7.35;;;4.50;91.80;;;;;;5012245;28;20530;-80
2020/12/07 08:22:17;;;;;;;10.23;6.70;;;5.20;92.50;;;;;;5012256;28;20057;-81
2020/12/07 08:24:55;;;;;;;10.50;7.03;;;6.00;94.40;;;;;;5011955;28;20237;-80
2020/12/07 08:27:21;;;;;;;7.93;6.60;;;6.20;84.90;;;;;;4995694;28;20128;-79
2020/12/07 08:29:46;;;;;;;8.23;6.22;;;7.00;80.80;;;;;;5028255;28;20097;-79
2020/12/07 08:32:24;;;;;;;7.30;6.18;;;7.70;96.20;;;;;;4997728;28;20037;-82
2020/12/07 08:34:50;;;;;;;8.65;6.55;;;;;;;;;;5006907;28;20021;-80
2020/12/07 08:37:16;;;;;;;7.55;5.75;;;7.20;81.60;;;;;;5016640;28;20463;-80
2020/12/07 08:39:42;;;;;;;5.78;4.97;;;7.00;77.00;;;;;;5013082;28;20022;-81
2020/12/07 08:42:07;;;;;;;8.02;5.80;;;6.60;79.50;;;;;;5012162;28;20444;-80
2020/12/07 08:44:33;;;;;;;6.07;5.47;;;6.90;96.60;;;;;;5007423;28;20018;-82
2020/12/07 08:46:59;;;;;;;7.35;6.07;;;6.90;91.80;;;;;;5011518;28;20025;-82
2020/12/07 08:49:25;;;;;;;8.88;5.78;;;7.00;79.60;;;;;;5015350;28;20022;-81
2020/12/07 08:51:50;;;;;;;7.85;5.30;;;7.10;78.00;;;;;;5032163;28;20477;-80
2020/12/07 08:54:16;;;;;;;7.75;5.97;;;7.20;78.60;;;;;;5014659;28;20117;-82
2020/12/07 08:56:42;;;;;;;6.90;5.22;;;7.60;95.60;;;;;;5031410;28;20036;-81
2020/12/07 08:59:07;;;;;;;6.85;6.15;;;8.00;86.20;;;;;;4998730;28;20022;-81
2020/12/07 09:01:33;;;;;;;6.07;5.47;;;7.80;76.40;;;;;;4979059;28;20034;-81
2020/12/07 09:04:02;;;;;;;5.78;4.90;;;8.00;75.60;;;;;;4994626;28;20453;-81
2020/12/07 09:06:27;;;;;;;8.02;5.80;;;7.90;74.90;;;;;;5012457;28;20140;-79
2020/12/07 09:08:53;;;;;;;7.53;6.10;;;8.80;98.70;;;;;;5011536;28;20488;-79
2020/12/07 09:11:19;;;;;;;5.70;4.72;;;8.80;90.50;;;;;;5012725;28;20030;-80
2020/12/07 09:13:44;;;;;;;5.55;4.35;;;10.00;73.30;;;;;;5027482;28;20018;-81
2020/12/07 09:16:10;;;;;;;4.03;3.60;;;10.00;67.60;;;;;;5009181;28;20029;-79
2020/12/07 09:18:36;;;;;;;5.55;3.90;;;10.40;66.80;;;;;;5007542;28;20498;-81
2020/12/07 09:21:03;;;;;;;4.78;4.22;;;10.20;66.60;;;;;;5008638;28;20029;-85
2020/12/07 09:23:29;;;;;;;4.10;3.67;;;10.10;74.70;;;;;;5002896;28;20048;-83
2020/12/07 09:25:54;;;;;;;4.72;4.25;;;9.70;67.70;;;;;;5019542;28;20494;-83
2020/12/07 09:28:21;;;;;;;5.80;5.20;;;9.50;69.10;;;;;;5005162;28;20042;-83
2020/12/07 09:30:46;;;;;;;6.63;4.47;;;9.20;68.80;;;;;;5021876;28;20028;-80
2020/12/07 09:33:12;;;;;;;5.40;4.53;;;9.00;69.20;;;;;;5003648;28;20029;-83
2020/12/07 09:35:39;;;;;;;6.35;5.38;;;9.10;69.20;;;;;;5006500;28;20152;-84
2020/12/07 09:38:04;;;;;;;7.45;4.95;;;9.50;76.70;;;;;;5020202;28;20017;-82
2020/12/07 09:40:30;;;;;;;6.68;4.05;;;9.60;68.20;;;;;;4988316;28;20165;-82
2020/12/07 09:42:55;;;;;;;4.85;3.83;;;9.70;66.50;;;;;;5004963;28;20419;-83
2020/12/07 09:45:21;;;;;;;5.07;4.20;;;9.90;66.20;;;;;;4996182;28;20057;-84
2020/12/07 09:47:47;;;;;;;5.13;4.25;;;10.50;65.70;;;;;;4995296;28;20053;-82
2020/12/07 09:50:13;;;;;;;5.28;4.03;;;10.60;70.80;;;;;;5003859;28;20033;-84
2020/12/07 09:52:39;;;;;;;4.05;3.60;;;10.30;64.50;;;;;;4997920;28;20072;-81
2020/12/07 09:55:05;;;;;;;4.22;3.83;;;10.40;65.00;;;;;;4997707;28;20052;-81
2020/12/07 09:57:30;;;;;;;3.60;3.10;;;10.50;63.80;;;;;;5014396;28;20054;-82
2020/12/07 09:59:56;;;;;;;4.10;3.38;;;;;;;;;;5014820;28;20068;-84
2020/12/07 10:02:22;;;;;;;3.67;3.30;;;10.50;66.50;;;;;;5032141;28;20017;-83
2020/12/07 10:04:48;;;;;;;3.80;3.10;;;10.60;62.70;;;;;;5013667;28;20472;-83
2020/12/07 10:07:13;;;;;;;4.15;3.33;;;10.80;69.30;;;;;;5002449;28;20778;-83
2020/12/07 10:09:39;;;;;;;4.20;3.22;;;10.80;63.60;;;;;;5010997;28;20022;-80
2020/12/07 10:12:05;;;;;;;4.20;3.20;;;10.90;63.40;;;;;;5011146;28;20034;-81
2020/12/07 10:14:30;;;;;;;3.40;3.10;;;10.60;63.80;;;;;;5011205;28;20037;-84
2020/12/07 10:16:57;;;;;;;2.97;2.70;;;9.90;65.40;;;;;;5015154;28;20018;-80
2020/12/07 10:19:22;;;;;;;4.18;3.42;;;9.30;72.20;;;;;;5016066;28;20022;-80
2020/12/07 10:21:48;;;;;;;4.65;3.13;;;9.00;70.80;;;;;;4998880;28;20029;-80
2020/12/07 10:24:13;;;;;;;3.67;3.10;;;9.20;69.10;;;;;;4998501;28;20033;-84
2020/12/07 10:26:39;;;;;;;3.70;3.20;;;9.80;67.10;;;;;;4998200;28;20070;-81
2020/12/07 10:29:05;;;;;;;3.97;3.58;;;10.10;65.80;;;;;;5016141;28;20475;-82
2020/12/07 10:31:30;;;;;;;4.53;3.55;;;10.40;65.00;;;;;;4982242;28;20018;-81
2020/12/07 10:33:56;;;;;;;4.00;3.40;;;11.00;62.90;;;;;;4998607;28;20025;-82
2020/12/07 10:36:24;;;;;;;3.97;3.10;;;11.90;60.80;;;;;;5003796;28;20025;-83
2020/12/07 10:38:49;;;;;;;4.30;3.40;;;12.20;58.40;;;;;;5034681;28;20108;-83
2020/12/07 10:41:15;;;;;;;5.65;3.70;;;12.30;57.30;;;;;;5034148;28;20052;-82
2020/12/07 10:43:41;;;;;;;3.30;3.00;;;12.50;57.80;;;;;;5034226;28;20025;-84
2020/12/07 10:46:07;;;;;;;4.03;3.58;;;12.30;57.70;;;;;;5017690;28;20418;-84
2020/12/07 10:48:33;;;;;;;3.50;2.97;;;12.20;57.30;;;;;;5033951;28;20079;-86
2020/12/07 10:50:58;;;;;;;4.00;3.42;;;12.20;58.10;;;;;;5017578;28;20419;-86
2020/12/07 10:53:24;;;;;;;4.00;2.78;;;12.20;58.10;;;;;;4998184;28;20037;-83
2020/12/07 10:55:50;;;;;;;3.35;2.80;;;12.20;57.70;;;;;;5014299;28;20060;-84
2020/12/07 10:58:20;;;;;;;3.72;2.92;;;12.00;57.50;;;;;;5014043;28;20014;-84
2020/12/07 11:00:46;;;;;;;5.45;5.03;;;11.80;57.60;;;;;;5014144;28;20022;-85
2020/12/07 11:03:11;;;;;;;4.18;3.65;;;11.60;57.80;;;;;;4997949;28;20025;-83
2020/12/07 11:05:38;;;;;;;3.45;3.05;;;11.60;57.90;;;;;;5014268;28;20388;-82
2020/12/07 11:08:13;;;;;;;4.28;3.05;;;11.70;57.60;;;;;;5014391;28;20025;-85
2020/12/07 11:10:38;;;;;;;5.32;3.08;;;11.70;57.70;;;;;;5014366;28;20026;-86
2020/12/07 11:13:12;;;;;;;9.43;3.80;;;11.80;68.80;;;;;;4997692;28;20044;-84
2020/12/07 11:15:37;;;;;;;7.45;5.82;;;12.10;62.30;;;;;;5020558;28;20022;-83
2020/12/07 11:18:03;;;;;;;11.23;9.57;;;12.20;59.10;;;;;;5035068;28;20083;-84
2020/12/07 11:20:29;;;;;;;3.72;3.22;;;12.10;58.30;;;;;;5017167;28;20452;-87
2020/12/07 11:22:54;;;;;;;7.30;6.47;;;12.10;55.10;;;;;;5033559;28;20029;-83
2020/12/07 11:25:20;;;;;;;4.18;3.00;;;11.80;58.50;;;;;;5000923;28;20036;-84
2020/12/07 11:27:45;;;;;;;7.78;7.13;;;11.70;56.80;;;;;;5016139;28;20524;-84
2020/12/07 11:30:11;;;;;;;8.90;8.02;;;11.40;60.20;;;;;;5034618;28;20152;-88
2020/12/07 11:32:37;;;;;;;4.63;3.80;;;11.60;59.20;;;;;;5016998;28;20076;-86
2020/12/07 11:35:02;;;;;;;4.38;3.97;;;11.30;58.10;;;;;;5000939;28;20025;-84
2020/12/07 11:37:28;;;;;;;3.42;3.13;;;10.60;60.50;;;;;;5016696;28;20021;-84
2020/12/07 11:40:51;;;;;;;3.83;3.53;;;10.10;62.40;;;;;;5016880;28;20029;-83
2020/12/07 11:42:51;;;;;;;3.10;2.80;;;9.80;63.40;;;;;;5030627;28;20116;-84
2020/12/07 11:45:17;;;;;;;4.53;4.07;;;9.40;64.60;;;;;;5017770;28;20364;-84
2020/12/07 11:47:43;;;;;;;4.30;3.90;;;9.20;65.60;;;;;;5032930;28;20027;-83
2020/12/07 11:50:08;;;;;;;3.40;2.97;;;9.00;65.20;;;;;;5013198;28;20018;-83
2020/12/07 11:52:34;;;;;;;4.20;3.10;;;8.80;67.40;;;;;;4997161;28;20427;-85
2020/12/07 11:54:59;;;;;;;4.60;4.18;;;8.80;76.20;;;;;;4997009;28;20026;-84
2020/12/07 11:57:25;;;;;;;4.28;3.88;;;8.70;68.60;;;;;;4997071;28;20064;-83
2020/12/07 11:59:51;;;;;;;3.00;2.70;;;8.90;67.80;;;;;;4980434;28;20061;-83
2020/12/07 12:02:16;;;;;;;2.95;2.63;;;8.90;67.70;;;;;;4996890;28;20032;-84
2020/12/07 12:04:42;;;;;;;3.63;3.10;;;8.90;67.50;;;;;;4996925;28;20444;-83
2020/12/07 12:07:07;;;;;;;3.60;3.10;;;8.80;68.60;;;;;;4997111;28;20029;-86
2020/12/07 12:09:36;;;;;;;3.38;3.08;;;8.80;68.80;;;;;;4980479;28;20036;-83
2020/12/07 12:12:03;;;;;;;3.13;2.83;;;8.70;67.80;;;;;;4981452;28;20121;-87
2020/12/07 12:14:29;;;;;;;9.52;6.43;;;8.60;67.30;;;;;;4980413;28;20030;-83
2020/12/07 12:16:56;;;;;;;3.30;3.00;;;8.50;67.80;;;;;;4996663;28;20018;-86
2020/12/07 12:19:21;;;;;;;4.55;3.40;;;8.40;67.30;;;;;;4980472;28;20029;-83
2020/12/07 12:21:47;;;;;;;3.63;3.00;;;8.40;68.10;;;;;;4980156;28;20026;-83
2020/12/07 12:24:13;;;;;;;5.07;4.53;;;8.50;68.30;;;;;;4980336;28;20033;-83
2020/12/07 12:26:40;;;;;;;3.50;3.20;;;8.90;90.80;;;;;;4987013;28;20017;-82
2020/12/07 12:29:06;;;;;;;4.88;3.60;;;8.80;68.10;;;;;;4980414;28;20403;-84
2020/12/07 12:31:32;;;;;;;3.53;2.90;;;9.10;75.60;;;;;;5011358;28;20030;-83
2020/12/07 12:33:57;;;;;;;5.80;4.32;;;9.30;65.90;;;;;;4999081;28;20159;-83
2020/12/07 12:36:25;;;;;;;3.15;2.85;;;9.50;65.10;;;;;;4992790;28;20088;-86
2020/12/07 12:38:50;;;;;;;5.30;3.00;;;9.50;62.60;;;;;;4995272;28;20076;-83
2020/12/07 12:41:16;;;;;;;3.50;2.80;;;9.50;63.30;;;;;;4996158;28;20017;-83
2020/12/07 12:43:42;;;;;;;3.10;2.80;;;9.50;71.10;;;;;;4995921;28;20022;-84
2020/12/07 12:46:08;;;;;;;3.15;2.85;;;9.70;64.40;;;;;;4995917;28;20033;-84
2020/12/07 12:48:34;;;;;;;2.90;2.60;;;9.80;62.90;;;;;;5012500;28;20376;-86
2020/12/07 12:51:00;;;;;;;3.20;2.90;;;9.30;65.00;;;;;;5031314;28;20033;-86
2020/12/07 12:53:26;;;;;;;4.07;2.75;;;;;;;;;;5015660;28;20044;-79
2020/12/07 12:55:52;;;;;;;3.10;2.80;;;9.30;67.50;;;;;;5033004;28;20384;-82
2020/12/07 12:58:17;;;;;;;9.27;2.60;;;9.20;62.70;;;;;;5015283;28;20037;-80
2020/12/07 13:00:45;;;;;;;2.58;2.35;;;9.00;60.00;;;;;;4998575;28;20128;-79
2020/12/07 13:03:11;;;;;;;4.03;2.50;;;8.10;86.10;;;;;;5015690;28;20017;-78
2020/12/07 13:05:36;;;;;;;2.95;2.40;;;8.10;60.50;;;;;;5032821;28;20117;-79
2020/12/07 13:08:02;;;;;;;2.50;2.30;;;7.80;61.20;;;;;;5015138;28;20079;-78
2020/12/07 13:10:28;;;;;;;3.13;2.83;;;7.40;61.40;;;;;;5032802;28;20036;-80
2020/12/07 13:12:54;;;;;;;3.97;2.60;;;;;;;;;;5031394;28;20459;-80
2020/12/07 13:15:21;;;;;;;2.65;2.42;;;7.00;70.40;;;;;;5030518;28;20017;-79
2020/12/07 13:17:52;;;;;;;3.15;2.70;;;7.00;64.40;;;;;;5031548;28;20021;-80
2020/12/07 13:20:25;;;;;;;3.58;2.58;;;6.80;65.00;;;;;;5031591;28;20021;-79
2020/12/07 13:23:03;;;;;;;2.95;2.38;;;6.80;66.30;;;;;;5016065;28;20471;-80
2020/12/07 13:25:56;;;;;;;6.70;3.17;;;6.80;66.80;;;;;;5016505;28;20115;-79